Terminal Aerodrome Forecast
Issued by NWS

Home | Current Version | Previous Version | Graphics & Text | Print | Product List | Glossary Off
Versions: 1 2 3 4 5 6 7 8 9 10 11 12 13 14 15 16 17 18 19 20 21 22 23

479
FTUS43 KBIS 030404 AAC
TAFJMS
TAF AMD
KJMS 030404Z 0304/0324 19005KT P6SM OVC018
     FM030900 17007KT P6SM BKN040
     FM031200 18008KT P6SM BKN015
     FM031600 17010KT P6SM BKN045
     FM032000 17012KT P6SM BKN030
     FM032200 17011KT P6SM BKN015=

USA.gov is the U.S. government's official web portal to all federal, state and local government web resources and services.